sensor_id;sensor_type;location;lat;lon;timestamp;P1;durP1;ratioP1;P2;durP2;ratioP2
16727;SDS011;8482;54.396;18.590;2023-03-26T00:01:11;5.57;;;2.55;;
16727;SDS011;8482;54.396;18.590;2023-03-26T00:03:40;5.57;;;2.63;;
16727;SDS011;8482;54.396;18.590;2023-03-26T00:06:12;6.53;;;2.50;;
16727;SDS011;8482;54.396;18.590;2023-03-26T00:08:42;5.10;;;2.40;;
16727;SDS011;8482;54.396;18.590;2023-03-26T00:11:10;5.72;;;2.75;;
16727;SDS011;8482;54.396;18.590;2023-03-26T00:13:38;4.72;;;2.28;;
16727;SDS011;8482;54.396;18.590;2023-03-26T00:16:07;4.80;;;2.80;;
16727;SDS011;8482;54.396;18.590;2023-03-26T00:18:42;6.68;;;2.55;;
16727;SDS011;8482;54.396;18.590;2023-03-26T00:21:13;4.40;;;2.40;;
16727;SDS011;8482;54.396;18.590;2023-03-26T00:23:41;4.40;;;2.20;;
16727;SDS011;8482;54.396;18.590;2023-03-26T00:26:08;4.38;;;2.40;;
16727;SDS011;8482;54.396;18.590;2023-03-26T00:28:35;5.10;;;2.45;;
16727;SDS011;8482;54.396;18.590;2023-03-26T00:31:04;5.30;;;2.58;;
16727;SDS011;8482;54.396;18.590;2023-03-26T00:33:32;3.90;;;2.30;;
16727;SDS011;8482;54.396;18.590;2023-03-26T00:36:02;6.55;;;2.42;;
16727;SDS011;8482;54.396;18.590;2023-03-26T00:38:30;4.70;;;2.20;;
16727;SDS011;8482;54.396;18.590;2023-03-26T00:41:02;4.78;;;2.28;;
16727;SDS011;8482;54.396;18.590;2023-03-26T00:43:41;4.05;;;2.33;;
16727;SDS011;8482;54.396;18.590;2023-03-26T00:46:11;4.60;;;2.53;;
16727;SDS011;8482;54.396;18.590;2023-03-26T00:48:37;4.40;;;2.20;;
16727;SDS011;8482;54.396;18.590;2023-03-26T00:51:06;5.40;;;2.20;;
16727;SDS011;8482;54.396;18.590;2023-03-26T00:53:34;4.93;;;2.70;;
16727;SDS011;8482;54.396;18.590;2023-03-26T00:56:03;4.55;;;2.50;;
16727;SDS011;8482;54.396;18.590;2023-03-26T00:58:31;5.15;;;2.45;;
16727;SDS011;8482;54.396;18.590;2023-03-26T01:00:59;5.43;;;2.67;;
16727;SDS011;8482;54.396;18.590;2023-03-26T01:03:30;5.55;;;2.50;;
16727;SDS011;8482;54.396;18.590;2023-03-26T01:08:48;5.82;;;2.55;;
16727;SDS011;8482;54.396;18.590;2023-03-26T01:11:20;3.88;;;2.38;;
16727;SDS011;8482;54.396;18.590;2023-03-26T01:13:59;4.85;;;2.63;;
16727;SDS011;8482;54.396;18.590;2023-03-26T01:22:19;4.50;;;2.15;;
16727;SDS011;8482;54.396;18.590;2023-03-26T01:24:49;5.10;;;2.78;;
16727;SDS011;8482;54.396;18.590;2023-03-26T01:36:16;6.85;;;2.40;;
16727;SDS011;8482;54.396;18.590;2023-03-26T01:39:11;4.28;;;2.53;;
16727;SDS011;8482;54.396;18.590;2023-03-26T01:44:56;4.80;;;2.50;;
16727;SDS011;8482;54.396;18.590;2023-03-26T01:47:32;4.88;;;2.45;;
16727;SDS011;8482;54.396;18.590;2023-03-26T01:50:01;4.90;;;2.38;;
16727;SDS011;8482;54.396;18.590;2023-03-26T01:52:27;4.20;;;2.38;;
16727;SDS011;8482;54.396;18.590;2023-03-26T01:54:53;4.68;;;2.92;;
16727;SDS011;8482;54.396;18.590;2023-03-26T02:00:32;4.50;;;2.40;;
16727;SDS011;8482;54.396;18.590;2023-03-26T02:03:26;5.72;;;2.63;;
16727;SDS011;8482;54.396;18.590;2023-03-26T02:09:02;5.60;;;2.30;;
16727;SDS011;8482;54.396;18.590;2023-03-26T02:11:34;5.80;;;2.40;;
16727;SDS011;8482;54.396;18.590;2023-03-26T02:14:05;5.32;;;2.63;;
16727;SDS011;8482;54.396;18.590;2023-03-26T02:16:33;5.25;;;2.67;;
16727;SDS011;8482;54.396;18.590;2023-03-26T02:18:59;5.68;;;2.83;;
16727;SDS011;8482;54.396;18.590;2023-03-26T02:21:26;4.97;;;2.10;;
16727;SDS011;8482;54.396;18.590;2023-03-26T02:23:53;4.38;;;2.30;;
16727;SDS011;8482;54.396;18.590;2023-03-26T02:26:27;4.28;;;2.78;;
16727;SDS011;8482;54.396;18.590;2023-03-26T02:28:56;4.95;;;2.30;;
16727;SDS011;8482;54.396;18.590;2023-03-26T02:31:23;4.80;;;2.58;;
16727;SDS011;8482;54.396;18.590;2023-03-26T02:33:50;4.25;;;2.33;;
16727;SDS011;8482;54.396;18.590;2023-03-26T02:36:19;6.57;;;2.75;;
16727;SDS011;8482;54.396;18.590;2023-03-26T02:38:52;4.68;;;2.53;;
16727;SDS011;8482;54.396;18.590;2023-03-26T02:41:19;4.47;;;2.65;;
16727;SDS011;8482;54.396;18.590;2023-03-26T02:43:45;5.45;;;2.70;;
16727;SDS011;8482;54.396;18.590;2023-03-26T02:46:11;5.20;;;2.72;;
16727;SDS011;8482;54.396;18.590;2023-03-26T02:48:37;5.82;;;2.90;;
16727;SDS011;8482;54.396;18.590;2023-03-26T02:51:05;4.88;;;2.60;;
16727;SDS011;8482;54.396;18.590;2023-03-26T02:53:31;6.47;;;2.72;;
16727;SDS011;8482;54.396;18.590;2023-03-26T02:55:58;5.80;;;3.10;;
16727;SDS011;8482;54.396;18.590;2023-03-26T02:58:26;4.13;;;2.50;;
16727;SDS011;8482;54.396;18.590;2023-03-26T03:00:54;4.60;;;2.80;;
16727;SDS011;8482;54.396;18.590;2023-03-26T03:03:21;4.43;;;2.50;;
16727;SDS011;8482;54.396;18.590;2023-03-26T03:05:50;4.50;;;2.30;;
16727;SDS011;8482;54.396;18.590;2023-03-26T03:08:20;3.45;;;2.20;;
16727;SDS011;8482;54.396;18.590;2023-03-26T03:11:00;3.92;;;2.33;;
16727;SDS011;8482;54.396;18.590;2023-03-26T03:13:32;4.85;;;2.60;;
16727;SDS011;8482;54.396;18.590;2023-03-26T03:15:58;4.60;;;2.47;;
16727;SDS011;8482;54.396;18.590;2023-03-26T03:18:24;4.18;;;2.72;;
16727;SDS011;8482;54.396;18.590;2023-03-26T03:20:50;4.72;;;2.90;;
16727;SDS011;8482;54.396;18.590;2023-03-26T03:23:18;4.90;;;2.45;;
16727;SDS011;8482;54.396;18.590;2023-03-26T03:25:44;5.20;;;2.70;;
16727;SDS011;8482;54.396;18.590;2023-03-26T03:28:10;4.90;;;2.60;;
16727;SDS011;8482;54.396;18.590;2023-03-26T03:30:37;4.88;;;3.10;;
16727;SDS011;8482;54.396;18.590;2023-03-26T03:33:04;5.82;;;2.75;;
16727;SDS011;8482;54.396;18.590;2023-03-26T03:35:30;4.43;;;2.40;;
16727;SDS011;8482;54.396;18.590;2023-03-26T03:37:58;3.92;;;2.22;;
16727;SDS011;8482;54.396;18.590;2023-03-26T03:40:24;4.22;;;2.25;;
16727;SDS011;8482;54.396;18.590;2023-03-26T03:42:50;5.18;;;2.47;;
16727;SDS011;8482;54.396;18.590;2023-03-26T03:45:17;3.90;;;2.63;;
16727;SDS011;8482;54.396;18.590;2023-03-26T03:47:43;4.30;;;2.50;;
16727;SDS011;8482;54.396;18.590;2023-03-26T03:50:09;5.07;;;2.47;;
16727;SDS011;8482;54.396;18.590;2023-03-26T03:52:35;5.65;;;2.90;;
16727;SDS011;8482;54.396;18.590;2023-03-26T03:55:01;6.40;;;2.90;;
16727;SDS011;8482;54.396;18.590;2023-03-26T03:57:29;5.20;;;2.50;;
16727;SDS011;8482;54.396;18.590;2023-03-26T03:59:57;4.93;;;2.40;;
16727;SDS011;8482;54.396;18.590;2023-03-26T04:02:24;3.70;;;2.20;;
16727;SDS011;8482;54.396;18.590;2023-03-26T04:04:54;4.65;;;2.50;;
16727;SDS011;8482;54.396;18.590;2023-03-26T04:07:24;5.18;;;2.67;;
16727;SDS011;8482;54.396;18.590;2023-03-26T04:09:52;4.32;;;2.13;;
16727;SDS011;8482;54.396;18.590;2023-03-26T04:12:18;4.80;;;2.38;;
16727;SDS011;8482;54.396;18.590;2023-03-26T04:14:44;4.72;;;2.70;;
16727;SDS011;8482;54.396;18.590;2023-03-26T04:17:10;6.50;;;2.55;;
16727;SDS011;8482;54.396;18.590;2023-03-26T04:19:38;4.90;;;2.33;;
16727;SDS011;8482;54.396;18.590;2023-03-26T04:22:04;3.97;;;2.47;;
16727;SDS011;8482;54.396;18.590;2023-03-26T04:24:30;4.88;;;2.35;;
16727;SDS011;8482;54.396;18.590;2023-03-26T04:27:05;5.00;;;2.33;;
16727;SDS011;8482;54.396;18.590;2023-03-26T04:29:39;3.50;;;2.10;;
16727;SDS011;8482;54.396;18.590;2023-03-26T04:32:11;4.63;;;2.67;;
16727;SDS011;8482;54.396;18.590;2023-03-26T04:34:54;3.83;;;2.17;;
16727;SDS011;8482;54.396;18.590;2023-03-26T04:37:37;3.47;;;2.20;;
16727;SDS011;8482;54.396;18.590;2023-03-26T04:40:07;3.22;;;2.03;;
16727;SDS011;8482;54.396;18.590;2023-03-26T04:42:46;3.55;;;2.28;;
16727;SDS011;8482;54.396;18.590;2023-03-26T04:45:16;5.10;;;2.42;;
16727;SDS011;8482;54.396;18.590;2023-03-26T04:47:46;4.70;;;2.35;;
16727;SDS011;8482;54.396;18.590;2023-03-26T04:50:14;4.93;;;2.45;;
16727;SDS011;8482;54.396;18.590;2023-03-26T04:52:40;4.25;;;2.50;;
16727;SDS011;8482;54.396;18.590;2023-03-26T04:55:11;3.40;;;2.40;;
16727;SDS011;8482;54.396;18.590;2023-03-26T04:58:12;4.07;;;2.30;;
16727;SDS011;8482;54.396;18.590;2023-03-26T05:00:41;4.90;;;2.30;;
16727;SDS011;8482;54.396;18.590;2023-03-26T05:03:08;4.45;;;2.22;;
16727;SDS011;8482;54.396;18.590;2023-03-26T05:05:35;4.80;;;3.08;;
16727;SDS011;8482;54.396;18.590;2023-03-26T05:08:02;5.03;;;2.42;;
16727;SDS011;8482;54.396;18.590;2023-03-26T05:10:28;3.38;;;1.90;;
16727;SDS011;8482;54.396;18.590;2023-03-26T05:12:54;3.72;;;2.20;;
16727;SDS011;8482;54.396;18.590;2023-03-26T05:15:21;3.88;;;2.58;;
16727;SDS011;8482;54.396;18.590;2023-03-26T05:17:47;3.80;;;2.05;;
16727;SDS011;8482;54.396;18.590;2023-03-26T05:20:15;4.57;;;2.30;;
16727;SDS011;8482;54.396;18.590;2023-03-26T05:22:50;3.45;;;2.30;;
16727;SDS011;8482;54.396;18.590;2023-03-26T05:25:16;4.10;;;2.30;;
16727;SDS011;8482;54.396;18.590;2023-03-26T05:27:43;3.72;;;2.30;;
16727;SDS011;8482;54.396;18.590;2023-03-26T05:30:17;3.65;;;2.35;;
16727;SDS011;8482;54.396;18.590;2023-03-26T05:32:46;4.68;;;2.53;;
16727;SDS011;8482;54.396;18.590;2023-03-26T05:35:13;3.80;;;2.00;;
16727;SDS011;8482;54.396;18.590;2023-03-26T05:37:41;3.70;;;2.42;;
16727;SDS011;8482;54.396;18.590;2023-03-26T05:40:09;4.50;;;2.42;;
16727;SDS011;8482;54.396;18.590;2023-03-26T05:42:38;4.50;;;2.20;;
16727;SDS011;8482;54.396;18.590;2023-03-26T05:45:06;4.13;;;2.45;;
16727;SDS011;8482;54.396;18.590;2023-03-26T05:47:34;3.47;;;2.50;;
16727;SDS011;8482;54.396;18.590;2023-03-26T05:50:00;3.97;;;2.25;;
16727;SDS011;8482;54.396;18.590;2023-03-26T05:52:27;5.30;;;2.28;;
16727;SDS011;8482;54.396;18.590;2023-03-26T05:54:53;3.92;;;1.95;;
16727;SDS011;8482;54.396;18.590;2023-03-26T05:57:19;3.22;;;1.88;;
16727;SDS011;8482;54.396;18.590;2023-03-26T05:59:46;3.30;;;1.85;;
16727;SDS011;8482;54.396;18.590;2023-03-26T06:02:12;2.80;;;1.60;;
16727;SDS011;8482;54.396;18.590;2023-03-26T06:04:38;3.38;;;1.70;;
16727;SDS011;8482;54.396;18.590;2023-03-26T06:07:08;3.55;;;1.48;;
16727;SDS011;8482;54.396;18.590;2023-03-26T06:09:40;3.35;;;1.45;;
16727;SDS011;8482;54.396;18.590;2023-03-26T06:12:06;2.72;;;1.40;;
16727;SDS011;8482;54.396;18.590;2023-03-26T06:14:34;1.77;;;1.10;;
16727;SDS011;8482;54.396;18.590;2023-03-26T06:17:00;1.83;;;1.42;;
16727;SDS011;8482;54.396;18.590;2023-03-26T06:19:26;2.63;;;1.23;;
16727;SDS011;8482;54.396;18.590;2023-03-26T06:21:52;3.78;;;1.80;;
16727;SDS011;8482;54.396;18.590;2023-03-26T06:24:18;1.50;;;1.00;;
16727;SDS011;8482;54.396;18.590;2023-03-26T06:26:45;3.13;;;1.25;;
16727;SDS011;8482;54.396;18.590;2023-03-26T06:29:12;2.03;;;1.10;;
16727;SDS011;8482;54.396;18.590;2023-03-26T06:31:39;1.58;;;1.00;;
16727;SDS011;8482;54.396;18.590;2023-03-26T06:34:05;1.90;;;1.02;;
16727;SDS011;8482;54.396;18.590;2023-03-26T06:36:31;1.83;;;1.10;;
16727;SDS011;8482;54.396;18.590;2023-03-26T06:38:57;2.20;;;0.90;;
16727;SDS011;8482;54.396;18.590;2023-03-26T06:41:23;1.75;;;1.10;;
16727;SDS011;8482;54.396;18.590;2023-03-26T06:43:49;1.35;;;0.93;;
16727;SDS011;8482;54.396;18.590;2023-03-26T06:46:15;1.23;;;0.93;;
16727;SDS011;8482;54.396;18.590;2023-03-26T06:48:41;2.22;;;1.30;;
16727;SDS011;8482;54.396;18.590;2023-03-26T06:51:08;1.95;;;1.00;;
16727;SDS011;8482;54.396;18.590;2023-03-26T06:53:34;1.92;;;1.20;;
16727;SDS011;8482;54.396;18.590;2023-03-26T06:56:00;1.30;;;0.95;;
16727;SDS011;8482;54.396;18.590;2023-03-26T06:58:27;3.25;;;1.10;;
16727;SDS011;8482;54.396;18.590;2023-03-26T07:00:54;1.58;;;1.10;;
16727;SDS011;8482;54.396;18.590;2023-03-26T07:03:21;3.15;;;1.40;;
16727;SDS011;8482;54.396;18.590;2023-03-26T07:05:47;2.28;;;1.30;;
16727;SDS011;8482;54.396;18.590;2023-03-26T07:08:14;2.28;;;1.30;;
16727;SDS011;8482;54.396;18.590;2023-03-26T07:10:40;2.85;;;1.40;;
16727;SDS011;8482;54.396;18.590;2023-03-26T07:13:06;3.47;;;1.80;;
16727;SDS011;8482;54.396;18.590;2023-03-26T07:15:32;2.45;;;1.42;;
16727;SDS011;8482;54.396;18.590;2023-03-26T07:17:58;3.25;;;1.33;;
16727;SDS011;8482;54.396;18.590;2023-03-26T07:20:24;3.72;;;1.50;;
16727;SDS011;8482;54.396;18.590;2023-03-26T07:22:50;2.53;;;1.27;;
16727;SDS011;8482;54.396;18.590;2023-03-26T07:25:17;2.63;;;1.40;;
16727;SDS011;8482;54.396;18.590;2023-03-26T07:33:34;3.20;;;1.35;;
16727;SDS011;8482;54.396;18.590;2023-03-26T07:47:52;2.30;;;1.40;;
16727;SDS011;8482;54.396;18.590;2023-03-26T07:50:21;2.95;;;1.30;;
16727;SDS011;8482;54.396;18.590;2023-03-26T07:52:48;2.88;;;1.40;;
16727;SDS011;8482;54.396;18.590;2023-03-26T07:55:14;3.58;;;1.40;;
16727;SDS011;8482;54.396;18.590;2023-03-26T07:57:56;2.95;;;1.38;;
16727;SDS011;8482;54.396;18.590;2023-03-26T08:00:51;1.50;;;1.17;;
16727;SDS011;8482;54.396;18.590;2023-03-26T08:06:34;1.10;;;0.95;;
16727;SDS011;8482;54.396;18.590;2023-03-26T08:15:08;1.33;;;0.85;;
16727;SDS011;8482;54.396;18.590;2023-03-26T08:17:48;1.83;;;0.80;;
16727;SDS011;8482;54.396;18.590;2023-03-26T08:20:44;1.05;;;0.68;;
16727;SDS011;8482;54.396;18.590;2023-03-26T08:25:52;1.23;;;0.70;;
16727;SDS011;8482;54.396;18.590;2023-03-26T08:28:49;0.90;;;0.80;;
16727;SDS011;8482;54.396;18.590;2023-03-26T08:31:20;0.57;;;0.40;;
16727;SDS011;8482;54.396;18.590;2023-03-26T08:33:57;0.40;;;0.40;;
16727;SDS011;8482;54.396;18.590;2023-03-26T08:36:23;1.00;;;0.70;;
16727;SDS011;8482;54.396;18.590;2023-03-26T08:38:50;0.73;;;0.63;;
16727;SDS011;8482;54.396;18.590;2023-03-26T08:47:45;0.50;;;0.50;;
16727;SDS011;8482;54.396;18.590;2023-03-26T08:50:39;0.70;;;0.50;;
16727;SDS011;8482;54.396;18.590;2023-03-26T08:57:02;0.95;;;0.65;;
16727;SDS011;8482;54.396;18.590;2023-03-26T09:08:46;0.63;;;0.50;;
16727;SDS011;8482;54.396;18.590;2023-03-26T09:32:01;1.63;;;0.60;;
16727;SDS011;8482;54.396;18.590;2023-03-26T09:35:09;1.08;;;0.55;;
16727;SDS011;8482;54.396;18.590;2023-03-26T09:49:24;1.17;;;0.50;;
16727;SDS011;8482;54.396;18.590;2023-03-26T09:57:59;2.00;;;0.98;;
16727;SDS011;8482;54.396;18.590;2023-03-26T10:00:37;0.75;;;0.60;;
16727;SDS011;8482;54.396;18.590;2023-03-26T10:03:44;0.82;;;0.40;;
16727;SDS011;8482;54.396;18.590;2023-03-26T10:06:53;1.08;;;0.50;;
16727;SDS011;8482;54.396;18.590;2023-03-26T10:12:57;1.92;;;0.50;;
16727;SDS011;8482;54.396;18.590;2023-03-26T10:56:20;2.45;;;1.30;;
16727;SDS011;8482;54.396;18.590;2023-03-26T10:59:02;4.38;;;1.60;;
16727;SDS011;8482;54.396;18.590;2023-03-26T11:07:43;3.53;;;1.42;;
16727;SDS011;8482;54.396;18.590;2023-03-26T11:10:26;4.35;;;1.52;;
16727;SDS011;8482;54.396;18.590;2023-03-26T11:16:20;4.28;;;1.40;;
16727;SDS011;8482;54.396;18.590;2023-03-26T11:19:29;3.63;;;1.13;;
16727;SDS011;8482;54.396;18.590;2023-03-26T11:25:21;2.20;;;1.10;;
16727;SDS011;8482;54.396;18.590;2023-03-26T11:33:50;3.97;;;1.02;;
16727;SDS011;8482;54.396;18.590;2023-03-26T11:36:27;2.15;;;1.20;;
16727;SDS011;8482;54.396;18.590;2023-03-26T11:39:01;1.95;;;0.93;;
16727;SDS011;8482;54.396;18.590;2023-03-26T11:41:34;3.33;;;1.20;;
16727;SDS011;8482;54.396;18.590;2023-03-26T11:44:02;2.25;;;1.25;;
16727;SDS011;8482;54.396;18.590;2023-03-26T11:46:35;3.45;;;1.20;;
16727;SDS011;8482;54.396;18.590;2023-03-26T11:49:09;2.53;;;1.10;;
16727;SDS011;8482;54.396;18.590;2023-03-26T11:51:40;2.40;;;1.15;;
16727;SDS011;8482;54.396;18.590;2023-03-26T11:54:11;4.22;;;1.15;;
16727;SDS011;8482;54.396;18.590;2023-03-26T11:56:41;3.75;;;1.10;;
16727;SDS011;8482;54.396;18.590;2023-03-26T11:59:20;2.80;;;1.10;;
16727;SDS011;8482;54.396;18.590;2023-03-26T12:04:37;2.80;;;0.95;;
16727;SDS011;8482;54.396;18.590;2023-03-26T12:09:58;4.63;;;1.98;;
16727;SDS011;8482;54.396;18.590;2023-03-26T12:12:33;4.40;;;1.77;;
16727;SDS011;8482;54.396;18.590;2023-03-26T12:15:23;3.00;;;1.40;;
16727;SDS011;8482;54.396;18.590;2023-03-26T12:17:51;3.13;;;1.23;;
16727;SDS011;8482;54.396;18.590;2023-03-26T12:22:50;3.30;;;1.33;;
16727;SDS011;8482;54.396;18.590;2023-03-26T12:25:25;2.65;;;1.15;;
16727;SDS011;8482;54.396;18.590;2023-03-26T12:28:04;2.90;;;1.10;;
16727;SDS011;8482;54.396;18.590;2023-03-26T12:30:56;2.55;;;0.95;;
16727;SDS011;8482;54.396;18.590;2023-03-26T12:33:30;3.30;;;1.23;;
16727;SDS011;8482;54.396;18.590;2023-03-26T12:35:59;3.42;;;1.13;;
16727;SDS011;8482;54.396;18.590;2023-03-26T12:38:53;2.05;;;1.20;;
16727;SDS011;8482;54.396;18.590;2023-03-26T12:41:20;1.38;;;0.98;;
16727;SDS011;8482;54.396;18.590;2023-03-26T12:47:14;3.22;;;1.20;;
16727;SDS011;8482;54.396;18.590;2023-03-26T12:49:54;4.47;;;1.25;;
16727;SDS011;8482;54.396;18.590;2023-03-26T13:06:53;2.50;;;0.90;;
16727;SDS011;8482;54.396;18.590;2023-03-26T13:18:49;3.60;;;1.10;;
16727;SDS011;8482;54.396;18.590;2023-03-26T13:24:33;1.35;;;0.73;;
16727;SDS011;8482;54.396;18.590;2023-03-26T13:30:24;1.73;;;0.88;;
16727;SDS011;8482;54.396;18.590;2023-03-26T13:33:03;1.27;;;0.77;;
16727;SDS011;8482;54.396;18.590;2023-03-26T13:47:08;2.25;;;0.85;;
16727;SDS011;8482;54.396;18.590;2023-03-26T13:52:43;2.38;;;1.08;;
16727;SDS011;8482;54.396;18.590;2023-03-26T13:58:12;2.47;;;0.90;;
16727;SDS011;8482;54.396;18.590;2023-03-26T14:01:04;2.10;;;1.08;;
16727;SDS011;8482;54.396;18.590;2023-03-26T14:03:53;1.80;;;0.90;;
16727;SDS011;8482;54.396;18.590;2023-03-26T14:09:51;1.83;;;1.13;;
16727;SDS011;8482;54.396;18.590;2023-03-26T14:13:09;2.10;;;0.95;;
16727;SDS011;8482;54.396;18.590;2023-03-26T14:42:57;2.83;;;1.40;;
16727;SDS011;8482;54.396;18.590;2023-03-26T14:49:01;3.35;;;1.88;;
16727;SDS011;8482;54.396;18.590;2023-03-26T14:55:13;2.03;;;1.30;;
16727;SDS011;8482;54.396;18.590;2023-03-26T15:22:09;2.05;;;1.05;;
16727;SDS011;8482;54.396;18.590;2023-03-26T15:43:11;2.72;;;1.15;;
16727;SDS011;8482;54.396;18.590;2023-03-26T15:45:42;3.13;;;1.15;;
16727;SDS011;8482;54.396;18.590;2023-03-26T15:53:42;3.72;;;1.45;;
16727;SDS011;8482;54.396;18.590;2023-03-26T15:56:24;4.35;;;1.40;;
16727;SDS011;8482;54.396;18.590;2023-03-26T16:11:11;6.90;;;1.83;;
16727;SDS011;8482;54.396;18.590;2023-03-26T16:17:21;5.15;;;1.60;;
16727;SDS011;8482;54.396;18.590;2023-03-26T16:19:56;9.52;;;2.25;;
16727;SDS011;8482;54.396;18.590;2023-03-26T16:22:57;8.13;;;2.38;;
16727;SDS011;8482;54.396;18.590;2023-03-26T16:25:31;6.20;;;2.03;;
16727;SDS011;8482;54.396;18.590;2023-03-26T16:28:30;5.38;;;1.63;;
16727;SDS011;8482;54.396;18.590;2023-03-26T16:33:38;5.28;;;1.40;;
16727;SDS011;8482;54.396;18.590;2023-03-26T16:36:31;9.30;;;2.08;;
16727;SDS011;8482;54.396;18.590;2023-03-26T16:39:15;4.55;;;1.80;;
16727;SDS011;8482;54.396;18.590;2023-03-26T16:42:46;5.57;;;1.77;;
16727;SDS011;8482;54.396;18.590;2023-03-26T16:47:51;10.65;;;2.13;;
16727;SDS011;8482;54.396;18.590;2023-03-26T16:50:47;5.13;;;1.70;;
16727;SDS011;8482;54.396;18.590;2023-03-26T16:53:48;5.55;;;1.73;;
16727;SDS011;8482;54.396;18.590;2023-03-26T16:56:45;9.98;;;2.92;;
16727;SDS011;8482;54.396;18.590;2023-03-26T17:05:15;8.23;;;2.53;;
16727;SDS011;8482;54.396;18.590;2023-03-26T17:10:57;5.82;;;1.95;;
16727;SDS011;8482;54.396;18.590;2023-03-26T17:16:46;3.95;;;1.50;;
16727;SDS011;8482;54.396;18.590;2023-03-26T17:19:38;5.85;;;1.90;;
16727;SDS011;8482;54.396;18.590;2023-03-26T17:22:26;8.68;;;2.10;;
16727;SDS011;8482;54.396;18.590;2023-03-26T17:25:18;8.98;;;2.20;;
16727;SDS011;8482;54.396;18.590;2023-03-26T17:28:10;5.80;;;1.75;;
16727;SDS011;8482;54.396;18.590;2023-03-26T17:31:17;5.72;;;1.63;;
16727;SDS011;8482;54.396;18.590;2023-03-26T17:37:38;5.07;;;1.55;;
16727;SDS011;8482;54.396;18.590;2023-03-26T17:42:36;6.57;;;1.60;;
16727;SDS011;8482;54.396;18.590;2023-03-26T17:45:21;8.35;;;1.92;;
16727;SDS011;8482;54.396;18.590;2023-03-26T17:54:16;4.60;;;1.47;;
16727;SDS011;8482;54.396;18.590;2023-03-26T17:57:05;5.33;;;2.40;;
16727;SDS011;8482;54.396;18.590;2023-03-26T17:59:57;4.53;;;1.70;;
16727;SDS011;8482;54.396;18.590;2023-03-26T18:02:30;7.27;;;1.77;;
16727;SDS011;8482;54.396;18.590;2023-03-26T18:05:09;8.67;;;2.20;;
16727;SDS011;8482;54.396;18.590;2023-03-26T18:13:40;5.47;;;1.70;;
16727;SDS011;8482;54.396;18.590;2023-03-26T18:16:39;5.78;;;1.92;;
16727;SDS011;8482;54.396;18.590;2023-03-26T18:19:14;7.47;;;2.30;;
16727;SDS011;8482;54.396;18.590;2023-03-26T18:21:46;6.50;;;2.17;;
16727;SDS011;8482;54.396;18.590;2023-03-26T18:27:04;6.87;;;2.30;;
16727;SDS011;8482;54.396;18.590;2023-03-26T18:29:41;7.30;;;2.55;;
16727;SDS011;8482;54.396;18.590;2023-03-26T18:32:24;8.05;;;2.13;;
16727;SDS011;8482;54.396;18.590;2023-03-26T18:34:59;9.87;;;2.30;;
16727;SDS011;8482;54.396;18.590;2023-03-26T18:37:41;5.35;;;1.88;;
16727;SDS011;8482;54.396;18.590;2023-03-26T18:40:12;7.82;;;2.13;;
16727;SDS011;8482;54.396;18.590;2023-03-26T18:42:53;6.30;;;1.85;;
16727;SDS011;8482;54.396;18.590;2023-03-26T18:45:27;8.32;;;2.50;;
16727;SDS011;8482;54.396;18.590;2023-03-26T18:48:02;8.27;;;2.50;;
16727;SDS011;8482;54.396;18.590;2023-03-26T18:50:45;8.52;;;2.40;;
16727;SDS011;8482;54.396;18.590;2023-03-26T18:53:18;7.65;;;2.20;;
16727;SDS011;8482;54.396;18.590;2023-03-26T18:55:50;6.15;;;1.95;;
16727;SDS011;8482;54.396;18.590;2023-03-26T19:01:58;6.13;;;1.98;;
16727;SDS011;8482;54.396;18.590;2023-03-26T19:04:29;6.28;;;2.15;;
16727;SDS011;8482;54.396;18.590;2023-03-26T19:07:00;7.63;;;2.10;;
16727;SDS011;8482;54.396;18.590;2023-03-26T19:09:31;9.23;;;2.50;;
16727;SDS011;8482;54.396;18.590;2023-03-26T19:12:06;6.55;;;3.13;;
16727;SDS011;8482;54.396;18.590;2023-03-26T19:14:52;7.30;;;2.40;;
16727;SDS011;8482;54.396;18.590;2023-03-26T19:17:41;6.28;;;2.60;;
16727;SDS011;8482;54.396;18.590;2023-03-26T19:20:17;5.53;;;2.08;;
16727;SDS011;8482;54.396;18.590;2023-03-26T19:22:51;9.20;;;2.17;;
16727;SDS011;8482;54.396;18.590;2023-03-26T19:28:00;8.85;;;2.47;;
16727;SDS011;8482;54.396;18.590;2023-03-26T19:30:31;5.47;;;2.03;;
16727;SDS011;8482;54.396;18.590;2023-03-26T19:33:14;7.30;;;2.70;;
16727;SDS011;8482;54.396;18.590;2023-03-26T19:35:50;6.37;;;2.37;;
16727;SDS011;8482;54.396;18.590;2023-03-26T19:38:36;8.87;;;2.83;;
16727;SDS011;8482;54.396;18.590;2023-03-26T19:41:21;7.82;;;2.38;;
16727;SDS011;8482;54.396;18.590;2023-03-26T19:44:00;7.60;;;2.03;;
16727;SDS011;8482;54.396;18.590;2023-03-26T19:46:49;7.88;;;2.03;;
16727;SDS011;8482;54.396;18.590;2023-03-26T19:49:29;8.35;;;2.85;;
16727;SDS011;8482;54.396;18.590;2023-03-26T19:55:00;6.32;;;1.77;;
16727;SDS011;8482;54.396;18.590;2023-03-26T19:57:36;5.40;;;1.70;;
16727;SDS011;8482;54.396;18.590;2023-03-26T20:00:03;13.70;;;2.35;;
16727;SDS011;8482;54.396;18.590;2023-03-26T20:02:41;7.03;;;1.90;;
16727;SDS011;8482;54.396;18.590;2023-03-26T20:08:12;7.60;;;1.85;;
16727;SDS011;8482;54.396;18.590;2023-03-26T20:10:41;6.78;;;1.98;;
16727;SDS011;8482;54.396;18.590;2023-03-26T20:13:11;5.85;;;2.22;;
16727;SDS011;8482;54.396;18.590;2023-03-26T20:15:40;6.67;;;1.70;;
16727;SDS011;8482;54.396;18.590;2023-03-26T20:18:12;5.60;;;1.73;;
16727;SDS011;8482;54.396;18.590;2023-03-26T20:20:38;4.95;;;1.55;;
16727;SDS011;8482;54.396;18.590;2023-03-26T20:23:09;4.87;;;1.50;;
16727;SDS011;8482;54.396;18.590;2023-03-26T20:25:43;5.90;;;1.83;;
16727;SDS011;8482;54.396;18.590;2023-03-26T20:28:17;5.23;;;1.70;;
16727;SDS011;8482;54.396;18.590;2023-03-26T20:30:45;5.25;;;1.88;;
16727;SDS011;8482;54.396;18.590;2023-03-26T20:33:17;4.15;;;1.50;;
16727;SDS011;8482;54.396;18.590;2023-03-26T20:35:53;5.40;;;1.90;;
16727;SDS011;8482;54.396;18.590;2023-03-26T20:38:21;6.93;;;2.05;;
16727;SDS011;8482;54.396;18.590;2023-03-26T20:40:50;5.57;;;1.73;;
16727;SDS011;8482;54.396;18.590;2023-03-26T20:43:18;3.65;;;1.50;;
16727;SDS011;8482;54.396;18.590;2023-03-26T20:45:45;7.38;;;2.00;;
16727;SDS011;8482;54.396;18.590;2023-03-26T20:48:12;7.10;;;1.70;;
16727;SDS011;8482;54.396;18.590;2023-03-26T20:50:39;5.28;;;1.63;;
16727;SDS011;8482;54.396;18.590;2023-03-26T20:53:13;6.05;;;2.35;;
16727;SDS011;8482;54.396;18.590;2023-03-26T20:55:42;5.22;;;1.65;;
16727;SDS011;8482;54.396;18.590;2023-03-26T20:58:13;5.95;;;1.80;;
16727;SDS011;8482;54.396;18.590;2023-03-26T21:00:45;4.43;;;1.80;;
16727;SDS011;8482;54.396;18.590;2023-03-26T21:03:18;5.03;;;1.80;;
16727;SDS011;8482;54.396;18.590;2023-03-26T21:05:46;7.10;;;2.22;;
16727;SDS011;8482;54.396;18.590;2023-03-26T21:08:17;6.07;;;2.15;;
16727;SDS011;8482;54.396;18.590;2023-03-26T21:10:45;4.78;;;1.55;;
16727;SDS011;8482;54.396;18.590;2023-03-26T21:16:19;6.65;;;1.83;;
16727;SDS011;8482;54.396;18.590;2023-03-26T21:18:46;5.20;;;1.98;;
16727;SDS011;8482;54.396;18.590;2023-03-26T21:30:47;5.40;;;1.75;;
16727;SDS011;8482;54.396;18.590;2023-03-26T21:33:14;6.57;;;1.83;;
16727;SDS011;8482;54.396;18.590;2023-03-26T21:35:42;7.50;;;2.30;;
16727;SDS011;8482;54.396;18.590;2023-03-26T21:38:09;9.80;;;2.88;;
16727;SDS011;8482;54.396;18.590;2023-03-26T21:40:36;7.65;;;2.03;;
16727;SDS011;8482;54.396;18.590;2023-03-26T21:43:02;7.38;;;2.17;;
16727;SDS011;8482;54.396;18.590;2023-03-26T21:45:28;9.57;;;3.60;;
16727;SDS011;8482;54.396;18.590;2023-03-26T21:47:55;4.63;;;2.22;;
16727;SDS011;8482;54.396;18.590;2023-03-26T21:50:21;8.25;;;2.38;;
16727;SDS011;8482;54.396;18.590;2023-03-26T21:52:49;7.65;;;2.00;;
16727;SDS011;8482;54.396;18.590;2023-03-26T21:55:17;5.95;;;2.10;;
16727;SDS011;8482;54.396;18.590;2023-03-26T22:01:24;6.93;;;2.83;;
16727;SDS011;8482;54.396;18.590;2023-03-26T22:04:01;5.53;;;2.05;;
16727;SDS011;8482;54.396;18.590;2023-03-26T22:06:53;4.93;;;1.60;;
16727;SDS011;8482;54.396;18.590;2023-03-26T22:09:37;4.47;;;1.20;;